Time;durP1;ratioP1;P1;durP2;ratioP2;P2;SDS_P1;SDS_P2;PMS_P1;PMS_P2;Temp;Humidity;BMP_temperature;BMP_pressure;BME280_temperature;BME280_humidity;BME280_pressure;Samples;Min_cycle;Max_cycle;Signal;HPM_P1;HPM_P2
2023/09/28 00:00:37;;;;;;;9.60;6.43;;;18.20;99.90;;;;;;5059674;28;20053;-77
2023/09/28 00:03:07;;;;;;;9.60;6.07;;;18.20;99.90;;;;;;5078920;28;20424;-79
2023/09/28 00:05:34;;;;;;;9.70;6.47;;;18.20;99.90;;;;;;5065076;28;20051;-80
2023/09/28 00:08:05;;;;;;;7.50;6.03;;;18.20;99.90;;;;;;5063023;28;20478;-79
2023/09/28 00:10:34;;;;;;;8.40;6.15;;;18.20;99.90;;;;;;5081814;28;20040;-79
2023/09/28 00:13:00;;;;;;;7.80;5.35;;;18.30;99.90;;;;;;5059075;28;20045;-79
2023/09/28 00:15:26;;;;;;;9.13;6.18;;;18.30;99.90;;;;;;5076278;28;20525;-79
2023/09/28 00:17:54;;;;;;;11.48;6.22;;;18.30;99.90;;;;;;5079929;28;20046;-80
2023/09/28 00:20:23;;;;;;;8.38;6.03;;;18.30;99.90;;;;;;5070825;28;20056;-77
2023/09/28 00:22:56;;;;;;;8.02;5.63;;;18.30;99.90;;;;;;5077344;28;20445;-78
2023/09/28 00:25:24;;;;;;;8.27;5.90;;;18.20;99.90;;;;;;5078619;28;20083;-79
2023/09/28 00:27:51;;;;;;;8.40;6.05;;;18.20;99.90;;;;;;5082932;28;20091;-78
2023/09/28 00:30:22;;;;;;;8.27;6.07;;;18.20;99.90;;;;;;5076348;28;20076;-77
2023/09/28 00:32:54;;;;;;;7.10;5.70;;;18.20;99.90;;;;;;5067261;28;20063;-78
2023/09/28 00:35:20;;;;;;;8.15;6.65;;;18.20;99.90;;;;;;5078397;28;20041;-77
2023/09/28 00:37:47;;;;;;;9.75;6.80;;;18.30;99.90;;;;;;5077109;28;20513;-79
2023/09/28 00:40:21;;;;;;;9.15;6.50;;;18.30;99.90;;;;;;5043768;28;20041;-79
2023/09/28 00:42:50;;;;;;;9.40;6.20;;;18.30;99.90;;;;;;5069390;28;20443;-77
2023/09/28 00:45:21;;;;;;;12.40;7.07;;;18.30;99.90;;;;;;5073580;28;20052;-77
2023/09/28 00:47:49;;;;;;;9.15;6.72;;;18.30;99.90;;;;;;5063281;28;20411;-77
2023/09/28 00:50:15;;;;;;;;;;;18.30;99.90;;;;;;5064621;28;20052;-79
2023/09/28 00:52:46;;;;;;;8.55;6.63;;;18.30;99.90;;;;;;5090352;28;19920;-77
2023/09/28 00:55:15;;;;;;;8.05;6.45;;;18.30;99.90;;;;;;5074133;28;20044;-77
2023/09/28 00:57:42;;;;;;;7.18;6.00;;;18.20;99.90;;;;;;5073894;28;20037;-78
2023/09/28 01:00:18;;;;;;;7.30;6.43;;;18.20;99.90;;;;;;5075706;28;20445;-78
2023/09/28 01:02:51;;;;;;;11.35;6.90;;;18.20;99.90;;;;;;5044857;28;20507;-80
2023/09/28 01:05:30;;;;;;;10.07;6.63;;;18.20;99.90;;;;;;5064157;28;20051;-79
2023/09/28 01:08:19;;;;;;;9.30;6.32;;;18.20;99.90;;;;;;5073269;28;20120;-78
2023/09/28 01:10:45;;;;;;;9.07;6.45;;;18.20;99.90;;;;;;5059808;28;20045;-78
2023/09/28 01:13:15;;;;;;;7.65;6.00;;;18.20;99.90;;;;;;5065081;28;20046;-78
2023/09/28 01:15:42;;;;;;;9.95;6.00;;;18.20;99.90;;;;;;5071261;28;20044;-78
2023/09/28 01:18:15;;;;;;;8.15;5.63;;;18.10;99.90;;;;;;5075912;28;20618;-77
2023/09/28 01:20:43;;;;;;;14.45;6.40;;;18.10;99.90;;;;;;5072525;28;20132;-77
2023/09/28 01:23:11;;;;;;;6.68;5.72;;;18.10;99.90;;;;;;5076197;28;20066;-76
2023/09/28 01:25:38;;;;;;;9.20;6.13;;;18.10;99.90;;;;;;5076999;28;20096;-78
2023/09/28 01:28:05;;;;;;;9.40;5.30;;;18.10;99.90;;;;;;5053953;28;20544;-78
2023/09/28 01:30:32;;;;;;;7.70;5.95;;;18.10;99.90;;;;;;5074962;28;20041;-78
2023/09/28 01:32:57;;;;;;;10.95;5.78;;;18.10;99.90;;;;;;5067232;28;20053;-79
2023/09/28 01:35:23;;;;;;;9.30;5.53;;;18.10;99.90;;;;;;5072440;28;20044;-77
2023/09/28 01:38:00;;;;;;;10.00;5.53;;;18.10;99.90;;;;;;5096084;28;20121;-78
2023/09/28 01:40:26;;;;;;;8.32;5.90;;;18.10;99.90;;;;;;5075237;28;20051;-78
2023/09/28 01:42:52;;;;;;;8.20;5.50;;;18.10;99.90;;;;;;5073734;28;20111;-77
2023/09/28 01:45:17;;;;;;;10.10;5.88;;;18.10;99.90;;;;;;5077099;28;20060;-77
2023/09/28 01:47:43;;;;;;;10.48;5.95;;;18.10;99.90;;;;;;5084406;28;20040;-77
2023/09/28 01:50:09;;;;;;;10.95;5.28;;;18.20;99.90;;;;;;5065195;28;20067;-77
2023/09/28 01:52:35;;;;;;;7.78;5.15;;;18.10;99.90;;;;;;5083265;28;20049;-78
2023/09/28 01:55:01;;;;;;;9.18;5.53;;;18.10;99.90;;;;;;5080383;28;20045;-77
2023/09/28 01:57:27;;;;;;;8.32;5.20;;;18.10;99.90;;;;;;5097632;28;20434;-76
2023/09/28 01:59:52;;;;;;;6.28;4.82;;;18.10;99.90;;;;;;5095918;28;20040;-77
2023/09/28 02:02:20;;;;;;;11.70;5.70;;;18.10;99.90;;;;;;5044991;28;20048;-78
2023/09/28 02:04:46;;;;;;;7.53;5.32;;;18.10;99.90;;;;;;5075585;28;20053;-77
2023/09/28 02:07:12;;;;;;;8.05;5.20;;;18.10;99.90;;;;;;5073228;28;20041;-78
2023/09/28 02:09:38;;;;;;;11.15;5.07;;;18.10;99.90;;;;;;5076450;28;20051;-77
2023/09/28 02:12:04;;;;;;;8.23;4.88;;;18.10;99.90;;;;;;5074223;28;20028;-79
2023/09/28 02:14:32;;;;;;;6.97;4.95;;;18.00;99.90;;;;;;5040922;28;20092;-78
2023/09/28 02:16:58;;;;;;;11.88;5.25;;;18.00;99.90;;;;;;5071683;28;20043;-79
2023/09/28 02:19:24;;;;;;;7.82;4.82;;;18.00;99.90;;;;;;5060535;28;20068;-80
2023/09/28 02:21:53;;;;;;;7.05;5.18;;;18.00;99.90;;;;;;5047506;28;20482;-79
2023/09/28 02:24:19;;;;;;;7.57;5.28;;;18.00;99.90;;;;;;5064616;28;20051;-78
2023/09/28 02:26:45;;;;;;;8.30;5.25;;;18.00;99.90;;;;;;5056146;28;20482;-77
2023/09/28 02:29:12;;;;;;;8.93;5.40;;;17.90;99.90;;;;;;5063387;28;20056;-77
2023/09/28 02:31:42;;;;;;;7.28;5.53;;;17.90;99.90;;;;;;5070087;28;20129;-78
2023/09/28 02:34:08;;;;;;;10.85;5.68;;;17.90;99.90;;;;;;5055999;28;20053;-78
2023/09/28 02:36:35;;;;;;;8.77;5.18;;;17.90;99.90;;;;;;5079820;28;20126;-78
2023/09/28 02:39:07;;;;;;;8.15;5.45;;;17.90;99.90;;;;;;5091447;28;20543;-78
2023/09/28 02:41:33;;;;;;;6.78;4.63;;;17.80;99.90;;;;;;5076174;28;20040;-77
2023/09/28 02:43:59;;;;;;;6.88;5.30;;;17.90;99.90;;;;;;5077639;28;20469;-77
2023/09/28 02:46:26;;;;;;;9.05;5.15;;;17.80;99.90;;;;;;5071544;28;20044;-79
2023/09/28 02:48:51;;;;;;;10.38;5.13;;;17.80;99.90;;;;;;5080421;28;20498;-78
2023/09/28 02:51:18;;;;;;;8.23;5.32;;;17.80;99.90;;;;;;5068067;28;20051;-77
2023/09/28 02:53:44;;;;;;;10.05;5.60;;;17.80;99.90;;;;;;5076122;28;20075;-78
2023/09/28 02:56:10;;;;;;;6.72;5.22;;;17.70;99.90;;;;;;5064374;28;20092;-78
2023/09/28 02:58:36;;;;;;;8.90;5.75;;;17.70;99.90;;;;;;5037752;28;20052;-79
2023/09/28 03:01:01;;;;;;;12.38;6.22;;;17.70;99.90;;;;;;5047194;28;20048;-78
2023/09/28 03:03:27;;;;;;;8.68;5.45;;;17.60;99.90;;;;;;5075728;28;20044;-78
2023/09/28 03:05:57;;;;;;;7.45;5.75;;;17.70;99.90;;;;;;5094426;28;20083;-77
2023/09/28 03:08:23;;;;;;;12.02;5.68;;;17.70;99.90;;;;;;5077668;28;20045;-77
2023/09/28 03:10:50;;;;;;;11.63;5.65;;;17.60;99.90;;;;;;5052381;28;20127;-77
2023/09/28 03:13:16;;;;;;;10.27;5.80;;;17.60;99.90;;;;;;5065140;28;20052;-78
2023/09/28 03:15:43;;;;;;;7.75;5.95;;;17.60;99.90;;;;;;5070402;28;20808;-78
2023/09/28 03:18:10;;;;;;;9.63;5.93;;;17.60;99.90;;;;;;5055933;28;20466;-78
2023/09/28 03:20:36;;;;;;;7.68;5.75;;;17.50;99.90;;;;;;5060908;28;20463;-77
2023/09/28 03:23:02;;;;;;;8.98;6.63;;;17.50;99.90;;;;;;5061517;28;20037;-78
2023/09/28 03:25:28;;;;;;;11.00;6.18;;;17.50;99.90;;;;;;5064933;28;20063;-78
2023/09/28 03:27:55;;;;;;;9.65;5.60;;;17.40;99.90;;;;;;5054830;28;20056;-78
2023/09/28 03:30:22;;;;;;;10.60;6.20;;;17.40;99.90;;;;;;5070549;28;20494;-78
2023/09/28 03:32:49;;;;;;;11.13;6.07;;;17.40;99.90;;;;;;5072805;28;20124;-78
2023/09/28 03:35:16;;;;;;;13.50;6.40;;;17.40;99.90;;;;;;5060791;28;20351;-78
2023/09/28 03:37:43;;;;;;;10.13;6.07;;;17.40;99.90;;;;;;5074090;28;20490;-78
2023/09/28 03:40:11;;;;;;;8.07;5.90;;;17.40;99.90;;;;;;5068282;28;20122;-79
2023/09/28 03:42:45;;;;;;;10.60;6.18;;;17.40;99.90;;;;;;5073514;28;20048;-78
2023/09/28 03:45:14;;;;;;;8.18;6.00;;;17.30;99.90;;;;;;5064809;28;20545;-78
2023/09/28 03:47:41;;;;;;;11.00;6.13;;;17.30;99.90;;;;;;5060446;28;20048;-78
2023/09/28 03:50:13;;;;;;;7.78;5.85;;;17.30;99.90;;;;;;5081808;28;20403;-78
2023/09/28 03:52:40;;;;;;;11.98;6.50;;;17.30;99.90;;;;;;5062777;28;20414;-79
2023/09/28 03:55:14;;;;;;;11.23;6.70;;;17.30;99.90;;;;;;5077449;28;20313;-77
2023/09/28 03:57:44;;;;;;;9.77;6.40;;;17.20;99.90;;;;;;5076777;28;20548;-78
2023/09/28 04:00:15;;;;;;;9.02;6.38;;;17.20;99.90;;;;;;5070770;28;20052;-80
2023/09/28 04:02:42;;;;;;;10.68;6.30;;;17.20;99.90;;;;;;5074339;28;20433;-78
2023/09/28 04:05:08;;;;;;;11.50;6.45;;;17.20;99.90;;;;;;5073018;28;20060;-77
2023/09/28 04:07:35;;;;;;;11.30;6.53;;;17.10;99.90;;;;;;5064216;28;20044;-78
2023/09/28 04:10:01;;;;;;;10.37;6.10;;;17.10;99.90;;;;;;5076145;28;20041;-77
2023/09/28 04:12:28;;;;;;;8.07;6.07;;;17.10;99.90;;;;;;5086226;28;20282;-77
2023/09/28 04:14:54;;;;;;;11.32;6.55;;;17.10;99.90;;;;;;5073725;28;20032;-77
2023/09/28 04:17:20;;;;;;;9.77;6.35;;;17.10;99.90;;;;;;5076550;28;20402;-79
2023/09/28 04:19:46;;;;;;;9.43;6.10;;;17.00;99.90;;;;;;5046827;28;20064;-78
2023/09/28 04:22:12;;;;;;;10.75;6.45;;;17.00;99.90;;;;;;5068827;28;20060;-78
2023/09/28 04:24:38;;;;;;;10.50;6.75;;;17.00;99.90;;;;;;5072961;28;20040;-77
2023/09/28 04:27:04;;;;;;;12.48;6.47;;;16.90;99.90;;;;;;5074252;28;20475;-78
2023/09/28 04:29:29;;;;;;;9.82;6.40;;;16.90;99.90;;;;;;5056055;28;20045;-77
2023/09/28 04:31:56;;;;;;;15.52;6.88;;;16.90;99.90;;;;;;5066375;28;20458;-78
2023/09/28 04:34:22;;;;;;;12.60;6.60;;;16.90;99.90;;;;;;5060331;28;20124;-78
2023/09/28 04:36:50;;;;;;;11.45;6.47;;;16.90;99.90;;;;;;5085410;28;20130;-77
2023/09/28 04:39:17;;;;;;;11.02;6.20;;;16.90;99.90;;;;;;5057958;28;20530;-78
2023/09/28 04:41:43;;;;;;;12.80;7.05;;;16.90;99.90;;;;;;5063469;28;20051;-78
2023/09/28 04:44:09;;;;;;;10.65;6.30;;;16.90;99.90;;;;;;5071076;28;20045;-78
2023/09/28 04:46:35;;;;;;;12.13;7.18;;;16.90;99.90;;;;;;5065683;28;20098;-78
2023/09/28 04:49:02;;;;;;;8.77;6.47;;;16.90;99.90;;;;;;5070895;28;20045;-78
2023/09/28 04:51:29;;;;;;;12.07;6.60;;;16.90;99.90;;;;;;5071747;28;20052;-77
2023/09/28 04:53:55;;;;;;;12.05;6.43;;;16.90;99.90;;;;;;5070629;28;20049;-77
2023/09/28 04:56:21;;;;;;;12.35;6.50;;;16.80;99.90;;;;;;5064960;28;20045;-76
2023/09/28 04:58:46;;;;;;;11.35;6.95;;;16.80;99.90;;;;;;5059198;28;20090;-79
2023/09/28 05:01:12;;;;;;;11.25;6.57;;;16.80;99.90;;;;;;5074749;28;20112;-78
2023/09/28 05:03:38;;;;;;;10.80;6.78;;;16.70;99.90;;;;;;5075440;28;20037;-77
2023/09/28 05:06:05;;;;;;;10.13;6.57;;;16.70;99.90;;;;;;5073071;28;20478;-78
2023/09/28 05:08:33;;;;;;;14.50;7.35;;;16.70;99.90;;;;;;5076495;28;20076;-78
2023/09/28 05:10:59;;;;;;;14.02;7.65;;;16.70;99.90;;;;;;5072822;28;20055;-77
2023/09/28 05:13:28;;;;;;;17.23;7.43;;;16.70;99.90;;;;;;5077074;28;20040;-78
2023/09/28 05:15:54;;;;;;;10.68;6.88;;;16.70;99.90;;;;;;5070330;28;20044;-77
2023/09/28 05:18:20;;;;;;;16.15;7.00;;;16.70;99.90;;;;;;5057814;28;20397;-77
2023/09/28 05:20:46;;;;;;;13.43;7.35;;;16.60;99.90;;;;;;5073625;28;20033;-77
2023/09/28 05:23:12;;;;;;;12.27;6.45;;;16.60;99.90;;;;;;5086457;28;20033;-77
2023/09/28 05:25:42;;;;;;;12.75;6.60;;;16.60;99.90;;;;;;5071086;28;20049;-78
2023/09/28 05:28:08;;;;;;;14.50;6.85;;;16.60;99.90;;;;;;5066278;28;20721;-77
2023/09/28 05:30:34;;;;;;;12.15;5.47;;;16.60;99.90;;;;;;5066156;28;20040;-78
2023/09/28 05:32:59;;;;;;;9.63;5.15;;;16.60;99.90;;;;;;5065849;28;20414;-78
2023/09/28 05:35:25;;;;;;;15.90;5.65;;;16.60;99.90;;;;;;5069764;28;20045;-77
2023/09/28 05:37:51;;;;;;;12.05;4.80;;;16.50;99.90;;;;;;5061068;28;20053;-78
2023/09/28 05:40:17;;;;;;;16.30;5.35;;;16.60;99.90;;;;;;5069240;28;20384;-78
2023/09/28 05:42:43;;;;;;;16.52;5.50;;;16.50;99.90;;;;;;5070046;28;20043;-78
2023/09/28 05:45:13;;;;;;;19.20;4.97;;;16.50;99.90;;;;;;5054329;28;20071;-78
2023/09/28 05:47:39;;;;;;;19.75;4.82;;;16.50;99.90;;;;;;5058885;28;20040;-78
2023/09/28 05:50:05;;;;;;;17.15;6.13;;;16.60;99.90;;;;;;5071765;28;20547;-77
2023/09/28 05:52:31;;;;;;;14.35;4.55;;;16.60;99.90;;;;;;5077262;28;20044;-77
2023/09/28 05:54:57;;;;;;;14.38;4.72;;;16.60;99.90;;;;;;5070371;28;20037;-77
2023/09/28 05:57:23;;;;;;;20.48;5.82;;;16.60;99.90;;;;;;5067227;28;20037;-77
2023/09/28 05:59:49;;;;;;;13.55;4.85;;;16.60;99.90;;;;;;5064810;28;20091;-78
2023/09/28 06:02:15;;;;;;;20.48;5.18;;;16.50;99.90;;;;;;5060765;28;20447;-77
2023/09/28 06:04:41;;;;;;;20.88;5.57;;;16.60;99.90;;;;;;5071791;28;20049;-79
2023/09/28 06:07:09;;;;;;;13.13;5.05;;;16.60;99.90;;;;;;5072059;28;20041;-77
2023/09/28 06:09:35;;;;;;;16.13;5.15;;;16.60;99.90;;;;;;5071404;28;20040;-76
2023/09/28 06:12:01;;;;;;;18.23;5.65;;;16.60;99.90;;;;;;5067381;28;20102;-78
2023/09/28 06:14:27;;;;;;;14.10;5.85;;;16.70;99.90;;;;;;5067469;28;20048;-78
2023/09/28 06:16:53;;;;;;;13.63;6.47;;;16.50;99.90;;;;;;5073640;28;20040;-78
2023/09/28 06:19:19;;;;;;;16.85;7.38;;;16.60;99.90;;;;;;5066076;28;20062;-78
2023/09/28 06:21:45;;;;;;;12.82;5.93;;;16.60;99.90;;;;;;5071677;28;20083;-78
2023/09/28 06:24:11;;;;;;;14.20;7.13;;;16.60;99.90;;;;;;5065939;28;20044;-77
2023/09/28 06:26:37;;;;;;;12.95;6.55;;;16.60;99.90;;;;;;5061279;28;20449;-77
2023/09/28 06:29:04;;;;;;;12.95;7.10;;;16.60;99.90;;;;;;5063757;28;20091;-78
2023/09/28 06:31:30;;;;;;;14.95;6.82;;;16.60;99.90;;;;;;5051022;28;20479;-77
2023/09/28 06:33:56;;;;;;;13.35;5.97;;;16.70;99.90;;;;;;5067456;28;20073;-77
2023/09/28 06:36:24;;;;;;;15.57;6.35;;;16.70;99.90;;;;;;5071202;28;20137;-79
2023/09/28 06:38:50;;;;;;;17.23;6.90;;;16.70;99.90;;;;;;5068459;28;20447;-80
2023/09/28 06:41:19;;;;;;;15.60;5.80;;;16.70;99.90;;;;;;5071327;28;20106;-78
2023/09/28 06:43:45;;;;;;;17.50;5.63;;;16.70;99.90;;;;;;5066417;28;20047;-79
2023/09/28 06:46:10;;;;;;;13.02;4.72;;;16.80;99.90;;;;;;5063700;28;20459;-79
2023/09/28 06:48:37;;;;;;;16.65;5.63;;;16.80;99.90;;;;;;5072371;28;20044;-78
2023/09/28 06:51:03;;;;;;;25.63;5.70;;;16.80;99.90;;;;;;5075235;28;20045;-79
2023/09/28 06:53:30;;;;;;;17.05;4.88;;;16.90;99.90;;;;;;5073086;28;20543;-79
2023/09/28 06:55:59;;;;;;;24.58;5.65;;;16.90;99.90;;;;;;5062261;28;20502;-78
2023/09/28 06:58:29;;;;;;;17.63;4.45;;;16.90;99.90;;;;;;5072605;28;20052;-78
2023/09/28 07:00:55;;;;;;;23.13;5.05;;;17.00;99.90;;;;;;5070323;28;20063;-79
2023/09/28 07:03:21;;;;;;;20.58;5.00;;;17.00;99.90;;;;;;5077227;28;20461;-78
2023/09/28 07:05:46;;;;;;;21.20;4.85;;;17.10;99.90;;;;;;5040836;28;20051;-78
2023/09/28 07:08:12;;;;;;;28.73;5.38;;;17.20;99.90;;;;;;5056890;28;20084;-78
2023/09/28 07:10:38;;;;;;;20.13;4.95;;;17.20;99.90;;;;;;5070656;28;20170;-78
2023/09/28 07:13:06;;;;;;;34.30;5.53;;;17.30;99.90;;;;;;5059007;28;20111;-79
2023/09/28 07:15:40;;;;;;;24.13;4.97;;;17.30;99.90;;;;;;5067704;28;20045;-78
2023/09/28 07:18:06;;;;;;;23.15;5.07;;;17.40;99.90;;;;;;5057395;28;20098;-78
2023/09/28 07:20:36;;;;;;;23.90;5.88;;;17.40;99.90;;;;;;5063101;28;20383;-78
2023/09/28 07:23:02;;;;;;;29.40;5.38;;;17.50;99.90;;;;;;5070186;28;20435;-78
2023/09/28 07:25:30;;;;;;;28.33;4.97;;;17.50;99.90;;;;;;5075781;28;20123;-78
2023/09/28 07:27:56;;;;;;;27.38;5.15;;;17.60;99.90;;;;;;5076467;28;20083;-79
2023/09/28 07:30:25;;;;;;;28.88;5.43;;;17.60;99.90;;;;;;5068926;28;20033;-78
2023/09/28 07:32:51;;;;;;;25.95;5.32;;;17.70;99.90;;;;;;5075618;28;20090;-77
2023/09/28 07:35:19;;;;;;;22.58;4.78;;;17.80;99.90;;;;;;5058675;28;20056;-78
2023/09/28 07:37:45;;;;;;;33.22;5.85;;;18.00;99.90;;;;;;5063415;28;20410;-77
2023/09/28 07:40:12;;;;;;;31.35;5.57;;;18.10;99.90;;;;;;5063950;28;20044;-77
2023/09/28 07:42:44;;;;;;;24.50;4.30;;;18.20;99.90;;;;;;5069092;28;20099;-78
2023/09/28 07:45:18;;;;;;;30.40;5.38;;;18.30;99.90;;;;;;5059635;28;20132;-77
2023/09/28 07:47:44;;;;;;;21.73;5.70;;;18.30;99.90;;;;;;5069105;28;20067;-78
2023/09/28 07:50:11;;;;;;;32.38;6.03;;;18.40;99.90;;;;;;5072423;28;21847;-77
2023/09/28 07:52:38;;;;;;;20.35;5.10;;;18.40;99.90;;;;;;5086009;28;20123;-77
2023/09/28 07:55:05;;;;;;;23.90;4.88;;;18.50;99.90;;;;;;5062032;28;20522;-78
2023/09/28 07:57:35;;;;;;;23.17;4.85;;;18.70;99.90;;;;;;5067924;28;20071;-77
2023/09/28 08:00:04;;;;;;;22.10;4.80;;;18.70;99.90;;;;;;5078487;28;20045;-79
2023/09/28 08:02:30;;;;;;;28.88;6.25;;;18.80;99.90;;;;;;5071199;28;20109;-78
2023/09/28 08:04:56;;;;;;;20.77;5.13;;;19.00;99.90;;;;;;5059845;28;20074;-78
2023/09/28 08:07:23;;;;;;;22.52;5.50;;;19.20;99.90;;;;;;5079282;28;20046;-78
2023/09/28 08:09:49;;;;;;;19.50;4.22;;;19.30;99.90;;;;;;5081254;28;20052;-77
2023/09/28 08:12:15;;;;;;;19.83;4.78;;;19.30;99.90;;;;;;5078035;28;20087;-78
2023/09/28 08:14:47;;;;;;;19.83;4.15;;;19.30;99.90;;;;;;5062668;28;20037;-78
2023/09/28 08:17:12;;;;;;;23.95;4.88;;;19.20;99.90;;;;;;5066462;28;20096;-80
2023/09/28 08:19:38;;;;;;;22.77;4.20;;;19.20;99.90;;;;;;5085523;28;20037;-78
2023/09/28 08:22:05;;;;;;;20.95;4.50;;;19.30;99.90;;;;;;5080795;28;20041;-79
2023/09/28 08:24:31;;;;;;;23.40;4.50;;;19.00;99.90;;;;;;5062724;28;20083;-81
2023/09/28 08:26:57;;;;;;;19.95;4.97;;;19.20;99.90;;;;;;5068339;28;20355;-79
2023/09/28 08:29:23;;;;;;;27.85;5.47;;;19.20;99.90;;;;;;5083173;28;20075;-79
2023/09/28 08:31:48;;;;;;;17.35;3.85;;;19.30;99.90;;;;;;5074614;28;20427;-78
2023/09/28 08:34:14;;;;;;;23.05;4.65;;;19.40;99.90;;;;;;5061050;28;20041;-79
2023/09/28 08:36:40;;;;;;;27.13;4.93;;;19.50;99.90;;;;;;5044409;28;20099;-79
2023/09/28 08:39:06;;;;;;;27.13;5.38;;;19.60;99.90;;;;;;5060711;28;20131;-79
2023/09/28 08:41:54;;;;;;;23.27;4.45;;;19.60;99.90;;;;;;5083628;28;20057;-79
2023/09/28 08:44:25;;;;;;;23.40;4.50;;;19.50;99.90;;;;;;5080405;28;20048;-78
2023/09/28 08:46:58;;;;;;;20.58;4.97;;;19.50;99.90;;;;;;5078329;28;20040;-79
2023/09/28 08:49:27;;;;;;;24.75;5.65;;;19.40;99.90;;;;;;5082999;28;20048;-79
2023/09/28 08:51:55;;;;;;;24.40;4.40;;;19.40;99.90;;;;;;5082639;28;20538;-80
2023/09/28 08:54:23;;;;;;;25.50;4.90;;;19.40;99.90;;;;;;5079354;28;20051;-78
2023/09/28 08:56:50;;;;;;;22.58;4.90;;;19.40;99.90;;;;;;5096523;28;20072;-78
2023/09/28 08:59:23;;;;;;;27.05;4.88;;;19.50;99.90;;;;;;5081593;28;20056;-79
2023/09/28 09:01:51;;;;;;;24.38;5.25;;;19.60;99.90;;;;;;5079668;28;20719;-79
2023/09/28 09:04:17;;;;;;;24.10;5.30;;;19.70;99.90;;;;;;5058767;28;20146;-79
2023/09/28 09:06:43;;;;;;;21.67;4.75;;;19.80;99.90;;;;;;5072998;28;20037;-80
2023/09/28 09:09:14;;;;;;;29.52;4.78;;;19.90;99.90;;;;;;5063988;28;20063;-79
2023/09/28 09:11:52;;;;;;;22.15;4.85;;;20.00;99.90;;;;;;5073113;28;20119;-79
2023/09/28 09:14:20;;;;;;;30.00;5.72;;;20.10;99.90;;;;;;5058191;28;20041;-80
2023/09/28 09:16:46;;;;;;;25.90;5.55;;;20.10;99.90;;;;;;5080895;28;20116;-80
2023/09/28 09:19:14;;;;;;;22.15;4.97;;;20.20;99.90;;;;;;5082336;28;20045;-78
2023/09/28 09:21:43;;;;;;;22.27;4.53;;;20.40;99.90;;;;;;5074109;28;20053;-79
2023/09/28 09:24:11;;;;;;;20.60;4.57;;;20.20;99.90;;;;;;5084195;28;20049;-79
2023/09/28 09:26:42;;;;;;;;;;;20.00;99.90;;;;;;5078322;28;20037;-78
2023/09/28 09:29:09;;;;;;;24.13;4.65;;;20.10;99.90;;;;;;5076316;28;19987;-78
2023/09/28 09:31:49;;;;;;;25.20;4.75;;;20.10;99.90;;;;;;5084780;28;20047;-79
2023/09/28 09:34:20;;;;;;;19.35;4.15;;;20.00;99.90;;;;;;5083491;28;20049;-78
2023/09/28 09:36:57;;;;;;;20.50;5.18;;;19.90;99.90;;;;;;5081355;28;20041;-78
2023/09/28 09:39:25;;;;;;;19.20;4.13;;;19.90;99.90;;;;;;5100534;28;20128;-78
2023/09/28 09:41:52;;;;;;;19.95;4.07;;;19.90;99.90;;;;;;5071593;28;20097;-80
2023/09/28 09:44:19;;;;;;;24.55;4.72;;;19.80;99.90;;;;;;5081238;28;20059;-78
2023/09/28 09:46:49;;;;;;;24.58;4.65;;;19.70;99.90;;;;;;5072986;28;20060;-79
2023/09/28 09:49:18;;;;;;;23.58;5.13;;;19.70;99.90;;;;;;5060585;28;20037;-80
2023/09/28 09:51:45;;;;;;;22.50;4.68;;;19.60;99.90;;;;;;5061694;28;20396;-81
2023/09/28 09:54:20;;;;;;;25.45;5.47;;;19.60;99.90;;;;;;5073126;28;20552;-80
2023/09/28 09:56:47;;;;;;;30.00;6.32;;;19.60;99.90;;;;;;5077512;28;20128;-81
2023/09/28 09:59:17;;;;;;;;;;;19.60;99.90;;;;;;5064585;28;20072;-79
2023/09/28 10:01:52;;;;;;;28.67;6.80;;;19.50;99.90;;;;;;5059853;28;19921;-80
2023/09/28 10:04:20;;;;;;;30.52;7.22;;;19.50;99.90;;;;;;5059812;28;20407;-78
2023/09/28 10:06:51;;;;;;;28.63;6.90;;;19.40;99.90;;;;;;5040995;28;20061;-79
2023/09/28 10:09:19;;;;;;;31.55;7.53;;;19.40;99.90;;;;;;5062333;28;20052;-80
2023/09/28 10:11:49;;;;;;;31.50;8.55;;;19.40;99.90;;;;;;5078615;28;22119;-80
2023/09/28 10:14:18;;;;;;;31.70;7.88;;;19.40;99.90;;;;;;5080624;28;20071;-81
2023/09/28 10:16:48;;;;;;;33.90;7.40;;;19.50;99.90;;;;;;5096454;28;20047;-80
2023/09/28 10:19:22;;;;;;;28.45;6.80;;;19.60;99.90;;;;;;5068242;28;20119;-79
2023/09/28 10:21:51;;;;;;;34.90;7.15;;;19.60;99.90;;;;;;5078539;28;20159;-78
2023/09/28 10:24:17;;;;;;;33.05;6.78;;;19.60;99.90;;;;;;5074656;28;20044;-79
2023/09/28 10:26:52;;;;;;;32.50;6.93;;;19.60;99.90;;;;;;5068164;28;20128;-79
2023/09/28 10:29:20;;;;;;;32.97;7.45;;;19.70;99.90;;;;;;5065365;28;20111;-79
2023/09/28 10:31:50;;;;;;;29.10;6.65;;;19.70;99.90;;;;;;5051115;28;20037;-79
2023/09/28 10:34:19;;;;;;;31.40;6.20;;;19.70;99.90;;;;;;5080227;28;20056;-80
2023/09/28 10:37:13;;;;;;;29.35;6.72;;;19.70;99.90;;;;;;5072555;28;20044;-78
2023/09/28 10:39:42;;;;;;;30.38;5.25;;;19.70;99.90;;;;;;5070023;28;20041;-79
2023/09/28 10:42:13;;;;;;;24.92;5.40;;;19.60;99.90;;;;;;5066574;28;20049;-79
2023/09/28 10:45:00;;;;;;;27.90;5.50;;;19.60;99.90;;;;;;5061896;28;20033;-80
2023/09/28 10:47:27;;;;;;;18.48;5.47;;;19.60;99.90;;;;;;5077939;28;20054;-78
2023/09/28 10:50:08;;;;;;;25.77;5.15;;;19.50;99.90;;;;;;5063562;28;20041;-79
2023/09/28 10:52:34;;;;;;;26.92;5.75;;;19.50;99.90;;;;;;5071939;28;20099;-79
2023/09/28 10:55:00;;;;;;;27.35;5.45;;;19.50;99.90;;;;;;5064605;28;20049;-80
2023/09/28 10:57:33;;;;;;;24.88;4.90;;;19.50;99.90;;;;;;5075363;28;20048;-80
2023/09/28 11:00:01;;;;;;;23.63;4.80;;;19.50;99.90;;;;;;5079357;28;20041;-80
2023/09/28 11:02:28;;;;;;;30.70;6.40;;;19.50;99.90;;;;;;5076479;28;20099;-79
2023/09/28 11:04:56;;;;;;;21.02;4.90;;;19.40;99.90;;;;;;5064871;28;20049;-79
2023/09/28 11:07:22;;;;;;;;;;;19.40;99.90;;;;;;5048428;28;20101;-79
2023/09/28 11:09:48;;;;;;;26.77;5.05;;;19.40;99.90;;;;;;5064234;28;19932;-79
2023/09/28 11:12:13;;;;;;;22.27;5.03;;;19.50;99.90;;;;;;5063669;28;20067;-80
2023/09/28 11:14:42;;;;;;;21.05;4.63;;;19.50;99.90;;;;;;5063280;28;20052;-78
2023/09/28 11:17:11;;;;;;;27.23;4.90;;;19.50;99.90;;;;;;5064360;28;20123;-79
2023/09/28 11:19:37;;;;;;;18.10;4.50;;;19.50;99.90;;;;;;5051396;28;20041;-79
2023/09/28 11:22:03;;;;;;;23.55;4.97;;;19.50;99.90;;;;;;5084373;28;20040;-81
2023/09/28 11:24:29;;;;;;;24.73;5.30;;;19.50;99.90;;;;;;5072730;28;20140;-81
2023/09/28 11:26:56;;;;;;;25.65;4.93;;;19.50;99.90;;;;;;5080975;28;20051;-80
2023/09/28 11:29:22;;;;;;;21.17;4.78;;;19.40;99.90;;;;;;5088413;28;20044;-80
2023/09/28 11:31:53;;;;;;;26.02;5.00;;;19.40;99.90;;;;;;5100458;28;20050;-80
2023/09/28 11:34:29;;;;;;;24.48;4.70;;;19.40;99.90;;;;;;5091097;28;20042;-80
2023/09/28 11:36:58;;;;;;;28.48;5.10;;;19.40;99.90;;;;;;5050986;28;20056;-79
2023/09/28 11:39:26;;;;;;;27.10;4.65;;;19.40;99.90;;;;;;5100339;28;20041;-80
2023/09/28 11:41:56;;;;;;;21.35;4.90;;;19.40;99.90;;;;;;5098047;28;20051;-79
2023/09/28 11:44:27;;;;;;;24.15;4.63;;;19.40;99.90;;;;;;5105051;28;20067;-79
2023/09/28 11:46:54;;;;;;;28.77;5.10;;;19.40;99.90;;;;;;5095012;28;20047;-80
2023/09/28 11:49:21;;;;;;;27.27;5.05;;;19.30;99.90;;;;;;5094535;28;20052;-78
2023/09/28 11:51:48;;;;;;;24.85;5.20;;;19.30;99.90;;;;;;5080213;28;20041;-79
2023/09/28 11:54:16;;;;;;;28.33;5.70;;;19.40;99.90;;;;;;5066258;28;20483;-79
2023/09/28 11:56:44;;;;;;;26.70;5.85;;;19.40;99.90;;;;;;5078211;28;20076;-79
2023/09/28 11:59:14;;;;;;;22.23;5.00;;;19.40;99.90;;;;;;5083726;28;20048;-81
2023/09/28 12:01:39;;;;;;;29.13;5.88;;;19.50;99.90;;;;;;5082232;28;20124;-79
2023/09/28 12:04:06;;;;;;;27.40;5.72;;;19.50;99.90;;;;;;5084326;28;20045;-79
2023/09/28 12:06:32;;;;;;;25.67;5.40;;;19.50;99.90;;;;;;5088265;28;20068;-79
2023/09/28 12:08:58;;;;;;;22.63;4.80;;;19.60;99.90;;;;;;5089073;28;20056;-79
2023/09/28 12:11:24;;;;;;;34.25;5.68;;;19.60;99.90;;;;;;5089080;28;20063;-81
2023/09/28 12:13:50;;;;;;;20.52;4.95;;;19.60;99.90;;;;;;5085069;28;20104;-81
2023/09/28 12:16:16;;;;;;;23.95;5.05;;;19.60;99.90;;;;;;5052387;28;20041;-80
2023/09/28 12:18:42;;;;;;;23.85;5.15;;;19.60;99.90;;;;;;5086287;28;20041;-80
2023/09/28 12:21:08;;;;;;;20.38;4.63;;;19.70;99.90;;;;;;5054742;28;20048;-80
2023/09/28 12:23:33;;;;;;;22.80;5.65;;;19.80;99.90;;;;;;5073367;28;20475;-78
2023/09/28 12:26:01;;;;;;;26.00;4.82;;;19.80;99.90;;;;;;5088916;28;20093;-81
2023/09/28 12:28:27;;;;;;;19.48;4.30;;;19.80;99.90;;;;;;5066041;28;20053;-79
2023/09/28 12:30:53;;;;;;;31.52;5.35;;;19.80;99.90;;;;;;5064666;28;20045;-79
2023/09/28 12:33:22;;;;;;;25.48;5.30;;;19.60;99.90;;;;;;5065026;28;20475;-80
2023/09/28 12:35:48;;;;;;;20.77;5.25;;;19.60;99.90;;;;;;5060140;28;20056;-79
2023/09/28 12:38:14;;;;;;;26.13;5.40;;;19.60;99.90;;;;;;5064176;28;20123;-81
2023/09/28 12:40:40;;;;;;;27.08;5.38;;;19.50;99.90;;;;;;5080377;28;20041;-78
2023/09/28 12:43:05;;;;;;;23.85;4.85;;;19.40;99.90;;;;;;5097338;28;20040;-79